AirNav   Air Wisconsin pilot careers
 
 631 users online  

FD58 St Luke's Hospital Heliport
Jacksonville, Florida, USA

GOING TO JACKSONVILLE?


FAA INFORMATION EFFECTIVE 09 NOVEMBER 2017

Location

FAA Identifier: FD58
Lat/Long: 30-15-17.7100N / 081-34-59.0800W
30-15.295167N / 081-34.984667W
30.2549194 / -81.5830778
(estimated)
Elevation: 25 ft. / 8 m (estimated)
Variation: 03W (1986)
Time zone: UTC -5 (UTC -4 during Daylight Saving Time)
Zip code: 32216

Heliport Operations

Heliport use: Private use. Permission required prior to landing
Activation date: 03/1986
Control tower: no
ARTCC: JACKSONVILLE CENTER
FSS: GAINESVILLE FLIGHT SERVICE STATION
Attendance: CONTINUOUS
Wind indicator: lighted
Segmented circle: no

Heliport Communications

WX ASOS at CRG (6 nm NE): PHONE 904-646-4670
WX AWOS-3 at HEG (12 nm W): 119.275 (904-695-0334)
WX ASOS at JAX (15 nm N): PHONE 904-741-4304
WX AWOS-3 at VQQ (15 nm W): 125.275 (904-778-6934)

Nearby radio navigation aids

VOR radial/distance  VOR name  Freq  Var
CRGr220/6.3CRAIG VORTAC114.5003W
VQQr084/(16.2)CECIL VOR117.9003W
SGJr330/22.2ST AUGUSTINE VOR/DME109.4006W

 
NDB name  Hdg/Dist  Freq  Var  ID
REYNOLDS020/17.733807WRYD .-. -.-- -..

Heliport Services

Runway Information

Helipad H1

Dimensions: 60 x 60 ft. / 18 x 18 m
Surface: concrete
Latitude: 30-15.295167N
Longitude: 081-34.984667W
Elevation: 25.0 ft.
Traffic pattern: leftleft

Heliport Ownership and Management from official FAA records

Ownership: Privately-owned
Owner: ST. LUKE'S HOSPITAL
4201 BELFORT RD.
JACKSONVILLE, FL 32216
Phone 904-296-3700
Manager: GARY P. PEZALL
4201 BELFORT RD.
JACKSONVILLE, FL 32216
Phone 904-296-3749

Instrument Procedures

There are no published instrument procedures at FD58.

Some nearby airports with instrument procedures:

KNIP - Jacksonville Naval Air Station (Towers Field) (5 nm W)
KCRG - Jacksonville Executive Airport at Craig (6 nm NE)
KNRB - Mayport Naval Station (Adm David L. McDonald Field) (12 nm NE)
KHEG - Herlong Recreational Airport (12 nm W)
KJAX - Jacksonville International Airport (15 nm N)
KVQQ - Cecil Airport (15 nm W)
 
Loc | Ops | Rwys | IFR | FBO | Links
Com | Nav | Svcs | Stats | Notes


 
Area around FD58 (St Luke's Hospital Heliport)
 
Road maps at: MapQuest Bing Google
 
Aerial photo
No photo
 
Sectional chart

 
Airport distance calculator
Flying to St Luke's Hospital Heliport? Find the distance to fly.

From to FD58

Sunrise and sunset
Times for 23-Nov-2017
 Local
(UTC-5)
 Zulu
(UTC)
Morning civil twilight06:3411:34
Sunrise07:0012:00
Sunset17:2622:26
Evening civil twilight17:5222:52

Current date and time
Zulu (UTC)  23-Nov-2017 20:41:24
Local (UTC-5)  23-Nov-2017 15:41:24
 
METAR
KNIP 
5nm SW 
232003Z AUTO 05010G20KT 10SM BKN010 BKN014 OVC028 19/18 A2987 RMK AO2 CIG 007V012 T01890178 $
KCRG 
6nm NE 
231953Z 07014G20KT 7SM BKN009 BKN016 OVC021 19/17 A2987 RMK AO2 RAE45 SLP113 T01890167 PNO $
KNRB 
12nm NE 
231952Z AUTO 05019G25KT 6SM -RA BKN013 BKN039 OVC100 A2986 RMK AO2 SLP112 P0003 $
KJAX 
16nm N 
231956Z 04011KT 10SM BKN008 OVC100 18/17 A2988 RMK AO2 RAE27 SLP118 P0001 T01830167 $
KVQQ 
16nm W 
232011Z 03012KT 2SM BR OVC009 17/17 A2987
TAF
KNIP 
5nm SW 
2315/2415 03009KT 6000 RA BR SCT010 BKN025 641109 642003 542409 543306 QNH2990INS TEMPO 2315/2321 3200 +RA BR BKN006 BKN020 BECMG 2320/2322 02013G20KT 6000 -RA BR SCT020 BKN060 641109 642003 542409 543306 QNH2994INS BECMG 2404/2406 36012KT 8000 BR VCSH SCT012 BKN030 600000 500000 QNH2997INS T18/2320Z T14/2411Z FN00180
KCRG 
6nm NE 
232002Z 2320/2418 05012G18KT 6SM -RA BR OVC008 FM240100 02009KT 4SM -RA BR OVC005 FM241400 02010KT P6SM SCT005 OVC015
KNRB 
12nm NE 
2315/2415 03014G21KT 4800 RA BR SCT010 BKN035 OVC100 641109 642003 542409 543306 QNH2989INS TEMPO 2315/2321 1600 +RA BR BKN012 OVC040 BECMG 2320/2322 02013KT 6000 -RA BR SCT020 BKN060 641109 642003 542409 543306 QNH2993INS BECMG 2404/2406 36012KT 8000 BR VCSH SCT012 BKN030 600000 500000 QNH2997INS AUTOMATED SENSOR METWATCH 2315 TIL 2410 T17/2320Z T13/2411Z FN00180
KJAX 
16nm N 
232006Z 2320/2418 04010G17KT 5SM -RA BR OVC007 FM240100 01009KT 4SM -RA BR OVC005 TEMPO 2407/2411 2SM BR OVC005 FM241400 02010KT P6SM SCT005 OVC015
KVQQ 
16nm W 
232004Z 2320/2418 04010G17KT 3SM -RA BR OVC007 FM240100 01008KT 4SM -RA BR OVC005 FM241400 02010KT P6SM SCT005 OVC015
NOTAMs
Click for the latest NOTAMs
NOTAMs are issued by the DoD/FAA and will open in a separate window not controlled by AirNav.

 

 
 

Would you like to see your business listed on this page?

 If your business provides an interesting product or service to pilots, flight crews, aircraft, or users of the St Luke's Hospital Heliport, you should consider listing it here.  To start the listing process, click on the button below
 
Add a business
 

Other Pages about St Luke's Hospital Heliport

Update a link
 
Copyright © AirNav, LLC. All rights reserved. Privacy Policy  Contact